MMMX 090647Z 00000KT 10SM SKC 16/03 A3036 NOSIG RMK HZY= 090647

MMMX 090546Z 19004KT 10SM SKC 16/03 A3036 NOSIG RMK SLP112 52002 902 HZY= 090546

MMMX 090445Z 26004KT 10SM SKC 17/03 A3037 NOSIG RMK HZY= 090445

MMMX 090345Z 15004KT 10SM SKC 18/03 A3036 NOSIG RMK HZY= 090345

MMMX 090240Z 18003KT 10SM SKC 19/03 A3034 NOSIG RMK SLP135 52017 906= 090240

MMMX 090142Z 14007KT 9SM SKC 20/03 A3032 NOSIG RMK HZY= 090142

MMMX 090050Z 14011KT 7SM SKC 21/02 A3029 NOSIG RMK HZY= 090050

SPECI MMMX 090048Z 14008KT 7SM SKC 21/02 A3029 NOSIG RMK HZY= 090048

MMMX 082346Z 10004KT 6SM SKC 23/M01 A3028 NOSIG RMK SLP100 57021 907 HZY= 082346

MMMX 082245Z 14004KT 6SM SKC 24/00 A3027 NOSIG RMK HZY= 082245

MMMX 082143Z 29004KT 6SM SKC 24/04 A3027 NOSIG RMK HZY= 082143

MMMX 082044Z 05004KT 5SM SKC 24/01 A3029 NOSIG RMK SLP097 57028 913 HZY= 082044

MMMX 081945Z 18004KT 5SM SKC 23/M01 A3031 NOSIG RMK HZY= 081945

MMMX 081845Z 36003KT 5SM SKC 22/01 A3035 NOSIG RMK HZY CI= 081845

MMMX 081745Z 09004KT 5SM SKC 21/04 A3039 NOSIG RMK SLP121 57014 911 HZY CI= 081745

MMMX 081645Z 13002KT 4SM SKC 20/04 A3043 NOSIG RMK HZY CI= 081645

SPECI MMMX 081618Z 00000KT 4SM SKC 19/04 A3044 NOSIG RMK HZY CI= 081618

MMMX 081550Z 09004KT 5SM SKC 17/03 A3045 NOSIG RMK HZY CI= 081550

SPECI MMMX 081548Z 09005KT 5SM SKC 17/03 A3045 NOSIG RMK HZY CI= 081548

MMMX 081521Z 10003KT 5SM SKC 15/03 A3045 NOSIG RMK HZY CI= 081521

SPECI MMMX 081510Z 00000KT 5SM SKC 15/03 A3045 NOSIG RMK HZY CI= 081510

MMMX 081451Z 09003KT 5SM FEW250 13/02 A3045 NOSIG RMK SLP165 52018 911 8/002 HZY= 081451

MMMX 081421Z 10004KT 6SM FEW250 12/02 A3044 NOSIG RMK 8/002 HZY= 081421

SPECI MMMX 081420Z 09003KT 6SM FEW250 12/02 A3044 NOSIG RMK 8/002 HZY= 081420

MMMX 081345Z 07004KT 6SM SCT250 10/02 A3043 NOSIG RMK 8/002 HZY= 081345

MMMX 081321Z 07005KT 7SM SCT230 09/02 A3042 NOSIG RMK 8/002 HZY= 081321

MMMX 081245Z 07006KT 5SM SCT220 09/01 A3041 NOSIG RMK 8/002 HZY= 081245

MMMX 081220Z 07003KT 5SM FEW220 10/01 A3040 NOSIG RMK 8/002 HZY= 081220

MMMX 081150Z 07003KT 6SM FEW220 10/01 A3039 NOSIG RMK SLP137 52005 903 8/002 HZY ISOL SC = 081150

MMMX 081048Z 10004KT 6SM FEW020 SCT220 11/02 A3037 NOSIG RMK 8/502 HZY= 081048

MMMX 080945Z 08004KT 6SM FEW220 10/03 A3037 NOSIG RMK 8/002 HZY SC= 080945

SPECI MMMX 080927Z 07005KT 6SM FEW220 10/03 A3037 NOSIG RMK 8/002 HZY SC = 080927

MMMX 080840Z 06004KT 7SM FEW220 12/04 A3036 NOSIG RMK SLP115 52001 900 8/002 HZY = 080840

MMMX 080740Z 00000KT 7SM FEW220 13/03 A3036 NOSIG RMK 8/002 HZY= 080740

MMMX 080650Z 07004KT 8SM SKC 14/00 A3035 NOSIG RMK HZY= 080650

SPECI MMMX 080643Z 04004KT 8SM SKC 14/00 A3035 NOSIG RMK HZY= 080643

MMMX 080545Z 36003KT 8SM SCT220 16/01 A3036 NOSIG RMK SLP109 52006 959 8/002 HZY = 080545

MMMX 080445Z 28005KT 8SM SCT220 17/04 A3035 NOSIG RMK 8/002 HZY= 080445

MMMX 080345Z 25005KT 8SM FEW220 18/02 A3034 NOSIG RMK 8/002 HZY = 080345

MMMX 080241Z 17005KT 10SM SKC 19/01 A3032 NOSIG RMK SLP128 52018 961= 080241

MMMX 080145Z 20003KT 10SM SKC 19/02 A3031 NOSIG= 080145

SPECI MMMX 080134Z 20004G14KT 10SM SKC 19/02 A3030 NOSIG= 080134

MMMX 080047Z 13011KT 10SM SKC 21/02 A3028 NOSIG= 080047

MMMX 072350Z 14010KT 8SM SKC 22/00 A3026 NOSIG RMK SLP104 52008 906 HYZ= 072350

SPECI MMMX 072312Z 10012KT 7SM SKC 23/01 A3024 NOSIG RMK HZY FULYR E MOV N = 072312

MMMX 072248Z 13010KT 7SM SKC 25/00 A3023 NOSIG RMK HZY= 072248

MMMX 072141Z 00000KT 7SM SKC 26/M04 A3023 NOSIG RMK HZY= 072141

MMMX 072046Z 06005KT 6SM SKC 25/M03 A3023 NOSIG RMK SLP072 57030 969 HZY= 072046

MMMX 071945Z 26004KT 6SM SKC 25/M01 A3026 NOSIG RMK HZY= 071945

MMMX 071845Z 36004KT 5SM SKC 24/02 A3030 NOSIG RMK HZY= 071845